sensor_id;sensor_type;location;lat;lon;timestamp;P1;durP1;ratioP1;P2;durP2;ratioP2
769;SDS011;368;48.698;9.116;2022-08-01T00:01:53;3.33;;;2.97;;
769;SDS011;368;48.698;9.116;2022-08-01T00:04:19;2.97;;;2.70;;
769;SDS011;368;48.698;9.116;2022-08-01T00:06:46;3.57;;;2.90;;
769;SDS011;368;48.698;9.116;2022-08-01T00:09:13;3.60;;;3.20;;
769;SDS011;368;48.698;9.116;2022-08-01T00:11:41;4.40;;;2.80;;
769;SDS011;368;48.698;9.116;2022-08-01T00:14:08;3.20;;;2.97;;
769;SDS011;368;48.698;9.116;2022-08-01T00:16:37;3.33;;;3.13;;
769;SDS011;368;48.698;9.116;2022-08-01T00:19:04;4.30;;;3.90;;
769;SDS011;368;48.698;9.116;2022-08-01T00:21:31;3.03;;;2.80;;
769;SDS011;368;48.698;9.116;2022-08-01T00:23:58;4.00;;;2.77;;
769;SDS011;368;48.698;9.116;2022-08-01T00:26:25;2.90;;;2.70;;
769;SDS011;368;48.698;9.116;2022-08-01T00:28:53;3.70;;;3.23;;
769;SDS011;368;48.698;9.116;2022-08-01T00:31:20;3.43;;;3.00;;
769;SDS011;368;48.698;9.116;2022-08-01T00:33:47;3.63;;;2.93;;
769;SDS011;368;48.698;9.116;2022-08-01T00:36:14;2.50;;;2.30;;
769;SDS011;368;48.698;9.116;2022-08-01T00:38:41;2.73;;;2.53;;
769;SDS011;368;48.698;9.116;2022-08-01T00:41:07;2.80;;;2.60;;
769;SDS011;368;48.698;9.116;2022-08-01T00:43:34;3.00;;;2.70;;
769;SDS011;368;48.698;9.116;2022-08-01T00:46:03;5.27;;;3.00;;
769;SDS011;368;48.698;9.116;2022-08-01T00:48:29;3.20;;;2.93;;
769;SDS011;368;48.698;9.116;2022-08-01T00:50:56;3.17;;;2.87;;
769;SDS011;368;48.698;9.116;2022-08-01T00:53:23;2.93;;;2.73;;
769;SDS011;368;48.698;9.116;2022-08-01T00:55:51;3.13;;;2.90;;
769;SDS011;368;48.698;9.116;2022-08-01T00:58:19;3.30;;;3.03;;
769;SDS011;368;48.698;9.116;2022-08-01T01:00:46;3.30;;;3.00;;
769;SDS011;368;48.698;9.116;2022-08-01T01:03:14;4.00;;;3.00;;
769;SDS011;368;48.698;9.116;2022-08-01T01:05:45;3.10;;;2.90;;
769;SDS011;368;48.698;9.116;2022-08-01T01:08:19;3.00;;;2.80;;
769;SDS011;368;48.698;9.116;2022-08-01T01:10:54;4.07;;;3.57;;
769;SDS011;368;48.698;9.116;2022-08-01T01:13:28;2.97;;;2.77;;
769;SDS011;368;48.698;9.116;2022-08-01T01:16:01;5.40;;;3.50;;
769;SDS011;368;48.698;9.116;2022-08-01T01:18:34;3.63;;;3.33;;
769;SDS011;368;48.698;9.116;2022-08-01T01:21:06;5.80;;;3.10;;
769;SDS011;368;48.698;9.116;2022-08-01T01:23:50;3.73;;;3.43;;
769;SDS011;368;48.698;9.116;2022-08-01T01:26:28;3.43;;;3.10;;
769;SDS011;368;48.698;9.116;2022-08-01T01:29:05;3.00;;;2.80;;
769;SDS011;368;48.698;9.116;2022-08-01T01:31:38;3.23;;;2.93;;
769;SDS011;368;48.698;9.116;2022-08-01T01:34:08;3.40;;;3.10;;
769;SDS011;368;48.698;9.116;2022-08-01T01:36:37;3.20;;;2.90;;
769;SDS011;368;48.698;9.116;2022-08-01T01:39:05;3.37;;;3.17;;
769;SDS011;368;48.698;9.116;2022-08-01T01:41:32;3.87;;;3.57;;
769;SDS011;368;48.698;9.116;2022-08-01T01:44:02;3.10;;;2.80;;
769;SDS011;368;48.698;9.116;2022-08-01T01:46:32;3.53;;;3.33;;
769;SDS011;368;48.698;9.116;2022-08-01T01:48:59;3.43;;;3.23;;
769;SDS011;368;48.698;9.116;2022-08-01T01:51:28;4.37;;;3.97;;
769;SDS011;368;48.698;9.116;2022-08-01T01:53:56;4.13;;;3.63;;
769;SDS011;368;48.698;9.116;2022-08-01T01:56:24;3.60;;;3.30;;
769;SDS011;368;48.698;9.116;2022-08-01T01:58:54;3.53;;;3.10;;
769;SDS011;368;48.698;9.116;2022-08-01T02:01:25;3.77;;;3.10;;
769;SDS011;368;48.698;9.116;2022-08-01T02:03:55;4.93;;;3.10;;
769;SDS011;368;48.698;9.116;2022-08-01T02:06:23;4.70;;;3.43;;
769;SDS011;368;48.698;9.116;2022-08-01T02:08:52;3.37;;;3.07;;
769;SDS011;368;48.698;9.116;2022-08-01T02:11:19;3.70;;;3.37;;
769;SDS011;368;48.698;9.116;2022-08-01T02:13:48;4.43;;;3.40;;
769;SDS011;368;48.698;9.116;2022-08-01T02:16:19;3.83;;;3.53;;
769;SDS011;368;48.698;9.116;2022-08-01T02:18:50;3.47;;;3.17;;
769;SDS011;368;48.698;9.116;2022-08-01T02:21:18;3.47;;;3.17;;
769;SDS011;368;48.698;9.116;2022-08-01T02:23:50;3.10;;;2.90;;
769;SDS011;368;48.698;9.116;2022-08-01T02:26:18;3.97;;;3.20;;
769;SDS011;368;48.698;9.116;2022-08-01T02:28:49;3.33;;;3.03;;
769;SDS011;368;48.698;9.116;2022-08-01T02:31:22;3.37;;;3.07;;
769;SDS011;368;48.698;9.116;2022-08-01T02:33:52;3.93;;;3.60;;
769;SDS011;368;48.698;9.116;2022-08-01T02:36:25;4.00;;;3.70;;
769;SDS011;368;48.698;9.116;2022-08-01T02:38:54;4.33;;;3.93;;
769;SDS011;368;48.698;9.116;2022-08-01T02:41:23;3.77;;;3.50;;
769;SDS011;368;48.698;9.116;2022-08-01T02:43:52;3.80;;;3.50;;
769;SDS011;368;48.698;9.116;2022-08-01T02:46:23;3.63;;;3.33;;
769;SDS011;368;48.698;9.116;2022-08-01T02:48:55;3.70;;;3.30;;
769;SDS011;368;48.698;9.116;2022-08-01T02:51:26;3.73;;;3.43;;
769;SDS011;368;48.698;9.116;2022-08-01T02:53:55;5.60;;;3.67;;
769;SDS011;368;48.698;9.116;2022-08-01T02:56:25;4.17;;;3.40;;
769;SDS011;368;48.698;9.116;2022-08-01T02:58:59;3.70;;;3.40;;
769;SDS011;368;48.698;9.116;2022-08-01T03:01:31;4.60;;;4.20;;
769;SDS011;368;48.698;9.116;2022-08-01T03:04:01;4.00;;;3.33;;
769;SDS011;368;48.698;9.116;2022-08-01T03:06:29;3.67;;;3.37;;
769;SDS011;368;48.698;9.116;2022-08-01T03:08:58;4.13;;;3.83;;
769;SDS011;368;48.698;9.116;2022-08-01T03:11:28;3.83;;;3.53;;
769;SDS011;368;48.698;9.116;2022-08-01T03:13:58;3.83;;;3.47;;
769;SDS011;368;48.698;9.116;2022-08-01T03:16:27;4.87;;;3.97;;
769;SDS011;368;48.698;9.116;2022-08-01T03:18:56;3.63;;;3.33;;
769;SDS011;368;48.698;9.116;2022-08-01T03:21:29;4.23;;;3.83;;
769;SDS011;368;48.698;9.116;2022-08-01T03:23:57;4.43;;;3.83;;
769;SDS011;368;48.698;9.116;2022-08-01T03:26:28;3.47;;;3.13;;
769;SDS011;368;48.698;9.116;2022-08-01T03:28:59;4.23;;;3.83;;
769;SDS011;368;48.698;9.116;2022-08-01T03:31:32;3.70;;;3.40;;
769;SDS011;368;48.698;9.116;2022-08-01T03:34:01;4.13;;;3.77;;
769;SDS011;368;48.698;9.116;2022-08-01T03:36:29;3.63;;;3.33;;
769;SDS011;368;48.698;9.116;2022-08-01T03:38:59;4.00;;;3.60;;
769;SDS011;368;48.698;9.116;2022-08-01T03:41:30;4.00;;;3.70;;
769;SDS011;368;48.698;9.116;2022-08-01T03:44:05;4.40;;;4.00;;
769;SDS011;368;48.698;9.116;2022-08-01T03:46:39;4.10;;;3.80;;
769;SDS011;368;48.698;9.116;2022-08-01T03:49:10;3.80;;;3.50;;
769;SDS011;368;48.698;9.116;2022-08-01T03:51:47;4.73;;;4.33;;
769;SDS011;368;48.698;9.116;2022-08-01T03:54:17;5.00;;;4.60;;
769;SDS011;368;48.698;9.116;2022-08-01T03:56:48;4.50;;;4.10;;
769;SDS011;368;48.698;9.116;2022-08-01T03:59:18;4.13;;;3.73;;
769;SDS011;368;48.698;9.116;2022-08-01T04:01:48;3.90;;;3.60;;
769;SDS011;368;48.698;9.116;2022-08-01T04:04:16;4.97;;;3.90;;
769;SDS011;368;48.698;9.116;2022-08-01T04:06:43;4.40;;;4.07;;
769;SDS011;368;48.698;9.116;2022-08-01T04:09:11;4.30;;;3.90;;
769;SDS011;368;48.698;9.116;2022-08-01T04:11:38;5.43;;;3.70;;
769;SDS011;368;48.698;9.116;2022-08-01T04:14:05;4.00;;;3.70;;
769;SDS011;368;48.698;9.116;2022-08-01T04:16:32;4.53;;;4.20;;
769;SDS011;368;48.698;9.116;2022-08-01T04:18:59;3.80;;;3.50;;
769;SDS011;368;48.698;9.116;2022-08-01T04:21:26;4.00;;;3.70;;
769;SDS011;368;48.698;9.116;2022-08-01T04:23:58;4.40;;;4.10;;
769;SDS011;368;48.698;9.116;2022-08-01T04:26:29;4.17;;;3.77;;
769;SDS011;368;48.698;9.116;2022-08-01T04:28:58;3.90;;;3.63;;
769;SDS011;368;48.698;9.116;2022-08-01T04:31:27;4.30;;;4.00;;
769;SDS011;368;48.698;9.116;2022-08-01T04:33:56;5.00;;;4.60;;
769;SDS011;368;48.698;9.116;2022-08-01T04:36:24;6.00;;;4.30;;
769;SDS011;368;48.698;9.116;2022-08-01T04:38:53;6.80;;;3.87;;
769;SDS011;368;48.698;9.116;2022-08-01T04:41:23;4.70;;;4.03;;
769;SDS011;368;48.698;9.116;2022-08-01T04:43:54;4.30;;;3.77;;
769;SDS011;368;48.698;9.116;2022-08-01T04:46:21;4.40;;;3.93;;
769;SDS011;368;48.698;9.116;2022-08-01T04:48:49;4.90;;;3.33;;
769;SDS011;368;48.698;9.116;2022-08-01T04:51:16;9.33;;;3.93;;
769;SDS011;368;48.698;9.116;2022-08-01T04:53:47;5.57;;;4.07;;
769;SDS011;368;48.698;9.116;2022-08-01T04:56:16;4.57;;;4.17;;
769;SDS011;368;48.698;9.116;2022-08-01T04:58:43;4.23;;;3.93;;
769;SDS011;368;48.698;9.116;2022-08-01T05:01:12;6.93;;;4.13;;
769;SDS011;368;48.698;9.116;2022-08-01T05:03:39;4.67;;;3.90;;
769;SDS011;368;48.698;9.116;2022-08-01T05:06:06;3.90;;;3.60;;
769;SDS011;368;48.698;9.116;2022-08-01T05:08:34;4.50;;;4.00;;
769;SDS011;368;48.698;9.116;2022-08-01T05:11:02;4.30;;;4.00;;
769;SDS011;368;48.698;9.116;2022-08-01T05:13:29;4.80;;;4.40;;
769;SDS011;368;48.698;9.116;2022-08-01T05:15:55;4.53;;;4.13;;
769;SDS011;368;48.698;9.116;2022-08-01T05:18:24;3.70;;;3.40;;
769;SDS011;368;48.698;9.116;2022-08-01T05:20:51;4.93;;;3.60;;
769;SDS011;368;48.698;9.116;2022-08-01T05:23:18;4.13;;;3.73;;
769;SDS011;368;48.698;9.116;2022-08-01T05:25:45;3.30;;;3.10;;
769;SDS011;368;48.698;9.116;2022-08-01T05:28:13;3.93;;;3.60;;
769;SDS011;368;48.698;9.116;2022-08-01T05:30:40;3.53;;;3.30;;
769;SDS011;368;48.698;9.116;2022-08-01T05:33:08;4.03;;;3.57;;
769;SDS011;368;48.698;9.116;2022-08-01T05:35:36;3.43;;;3.23;;
769;SDS011;368;48.698;9.116;2022-08-01T05:38:04;3.77;;;3.47;;
769;SDS011;368;48.698;9.116;2022-08-01T05:40:31;3.80;;;3.50;;
769;SDS011;368;48.698;9.116;2022-08-01T05:42:57;4.77;;;3.20;;
769;SDS011;368;48.698;9.116;2022-08-01T05:45:24;4.17;;;3.87;;
769;SDS011;368;48.698;9.116;2022-08-01T05:47:51;4.13;;;3.37;;
769;SDS011;368;48.698;9.116;2022-08-01T05:50:18;4.80;;;3.33;;
769;SDS011;368;48.698;9.116;2022-08-01T05:52:46;3.03;;;2.83;;
769;SDS011;368;48.698;9.116;2022-08-01T05:55:13;6.53;;;2.97;;
769;SDS011;368;48.698;9.116;2022-08-01T05:57:39;5.03;;;3.10;;
769;SDS011;368;48.698;9.116;2022-08-01T06:00:08;2.70;;;2.47;;
769;SDS011;368;48.698;9.116;2022-08-01T06:02:39;2.80;;;2.60;;
769;SDS011;368;48.698;9.116;2022-08-01T06:05:07;2.70;;;2.50;;
769;SDS011;368;48.698;9.116;2022-08-01T06:07:34;3.80;;;2.90;;
769;SDS011;368;48.698;9.116;2022-08-01T06:10:03;2.83;;;2.50;;
769;SDS011;368;48.698;9.116;2022-08-01T06:12:32;2.80;;;2.57;;
769;SDS011;368;48.698;9.116;2022-08-01T06:15:01;2.50;;;2.30;;
769;SDS011;368;48.698;9.116;2022-08-01T06:17:29;3.83;;;2.30;;
769;SDS011;368;48.698;9.116;2022-08-01T06:19:55;2.87;;;2.57;;
769;SDS011;368;48.698;9.116;2022-08-01T06:22:23;3.00;;;2.80;;
769;SDS011;368;48.698;9.116;2022-08-01T06:24:50;2.90;;;2.50;;
769;SDS011;368;48.698;9.116;2022-08-01T06:27:18;2.70;;;2.47;;
769;SDS011;368;48.698;9.116;2022-08-01T06:29:45;2.00;;;1.90;;
769;SDS011;368;48.698;9.116;2022-08-01T06:32:12;1.93;;;1.83;;
769;SDS011;368;48.698;9.116;2022-08-01T06:34:39;5.43;;;2.37;;
769;SDS011;368;48.698;9.116;2022-08-01T06:37:06;2.73;;;2.20;;
769;SDS011;368;48.698;9.116;2022-08-01T06:39:32;2.10;;;1.83;;
769;SDS011;368;48.698;9.116;2022-08-01T06:41:59;2.10;;;1.73;;
769;SDS011;368;48.698;9.116;2022-08-01T06:44:27;2.63;;;2.30;;
769;SDS011;368;48.698;9.116;2022-08-01T06:46:55;2.30;;;2.10;;
769;SDS011;368;48.698;9.116;2022-08-01T06:49:23;2.03;;;1.93;;
769;SDS011;368;48.698;9.116;2022-08-01T06:51:50;2.90;;;2.40;;
769;SDS011;368;48.698;9.116;2022-08-01T06:54:17;1.90;;;1.80;;
769;SDS011;368;48.698;9.116;2022-08-01T06:56:43;2.97;;;2.10;;
769;SDS011;368;48.698;9.116;2022-08-01T06:59:10;2.37;;;2.00;;
769;SDS011;368;48.698;9.116;2022-08-01T07:01:38;2.10;;;1.90;;
769;SDS011;368;48.698;9.116;2022-08-01T07:04:05;2.37;;;2.00;;
769;SDS011;368;48.698;9.116;2022-08-01T07:06:33;2.37;;;2.03;;
769;SDS011;368;48.698;9.116;2022-08-01T07:09:01;3.20;;;2.13;;
769;SDS011;368;48.698;9.116;2022-08-01T07:11:28;2.87;;;2.23;;
769;SDS011;368;48.698;9.116;2022-08-01T07:13:55;2.40;;;2.20;;
769;SDS011;368;48.698;9.116;2022-08-01T07:16:22;2.03;;;1.93;;
769;SDS011;368;48.698;9.116;2022-08-01T07:18:50;1.97;;;1.77;;
769;SDS011;368;48.698;9.116;2022-08-01T07:21:18;2.63;;;2.27;;
769;SDS011;368;48.698;9.116;2022-08-01T07:23:45;1.60;;;1.50;;
769;SDS011;368;48.698;9.116;2022-08-01T07:26:12;2.90;;;1.90;;
769;SDS011;368;48.698;9.116;2022-08-01T07:28:39;3.63;;;2.33;;
769;SDS011;368;48.698;9.116;2022-08-01T07:31:05;2.50;;;2.20;;
769;SDS011;368;48.698;9.116;2022-08-01T07:33:32;3.57;;;2.07;;
769;SDS011;368;48.698;9.116;2022-08-01T07:36:00;2.23;;;1.53;;
769;SDS011;368;48.698;9.116;2022-08-01T07:38:28;1.90;;;1.80;;
769;SDS011;368;48.698;9.116;2022-08-01T07:40:55;2.13;;;1.63;;
769;SDS011;368;48.698;9.116;2022-08-01T07:43:24;1.60;;;1.50;;
769;SDS011;368;48.698;9.116;2022-08-01T07:45:51;1.90;;;1.80;;
769;SDS011;368;48.698;9.116;2022-08-01T07:48:17;4.40;;;1.97;;
769;SDS011;368;48.698;9.116;2022-08-01T07:50:45;2.90;;;1.80;;
769;SDS011;368;48.698;9.116;2022-08-01T07:53:13;4.10;;;2.60;;
769;SDS011;368;48.698;9.116;2022-08-01T07:55:40;2.03;;;1.90;;
769;SDS011;368;48.698;9.116;2022-08-01T07:58:07;2.40;;;2.30;;
769;SDS011;368;48.698;9.116;2022-08-01T08:00:34;2.63;;;2.00;;
769;SDS011;368;48.698;9.116;2022-08-01T08:03:00;2.83;;;2.27;;
769;SDS011;368;48.698;9.116;2022-08-01T08:05:27;2.73;;;2.47;;
769;SDS011;368;48.698;9.116;2022-08-01T08:07:54;2.60;;;2.40;;
769;SDS011;368;48.698;9.116;2022-08-01T08:10:22;2.37;;;2.10;;
769;SDS011;368;48.698;9.116;2022-08-01T08:12:49;2.57;;;2.37;;
769;SDS011;368;48.698;9.116;2022-08-01T08:15:16;2.70;;;2.50;;
769;SDS011;368;48.698;9.116;2022-08-01T08:17:43;2.40;;;2.20;;
769;SDS011;368;48.698;9.116;2022-08-01T08:20:10;2.53;;;2.33;;
769;SDS011;368;48.698;9.116;2022-08-01T08:22:37;3.60;;;2.80;;
769;SDS011;368;48.698;9.116;2022-08-01T08:25:04;2.97;;;2.77;;
769;SDS011;368;48.698;9.116;2022-08-01T08:27:33;2.83;;;2.50;;
769;SDS011;368;48.698;9.116;2022-08-01T08:30:00;3.10;;;2.87;;
769;SDS011;368;48.698;9.116;2022-08-01T08:32:27;2.70;;;2.50;;
769;SDS011;368;48.698;9.116;2022-08-01T08:34:54;2.33;;;2.20;;
769;SDS011;368;48.698;9.116;2022-08-01T08:37:23;3.10;;;2.90;;
769;SDS011;368;48.698;9.116;2022-08-01T08:39:51;3.80;;;2.80;;
769;SDS011;368;48.698;9.116;2022-08-01T08:42:18;3.30;;;3.00;;
769;SDS011;368;48.698;9.116;2022-08-01T08:44:48;3.50;;;3.20;;
769;SDS011;368;48.698;9.116;2022-08-01T08:47:16;2.90;;;2.70;;
769;SDS011;368;48.698;9.116;2022-08-01T08:49:44;3.50;;;3.00;;
769;SDS011;368;48.698;9.116;2022-08-01T08:52:11;3.87;;;2.83;;
769;SDS011;368;48.698;9.116;2022-08-01T08:54:40;3.70;;;3.37;;
769;SDS011;368;48.698;9.116;2022-08-01T08:57:08;5.70;;;2.90;;
769;SDS011;368;48.698;9.116;2022-08-01T08:59:37;3.40;;;3.00;;
769;SDS011;368;48.698;9.116;2022-08-01T09:02:08;3.80;;;3.50;;
769;SDS011;368;48.698;9.116;2022-08-01T09:04:37;2.90;;;2.70;;
769;SDS011;368;48.698;9.116;2022-08-01T09:07:05;3.10;;;2.90;;
769;SDS011;368;48.698;9.116;2022-08-01T09:09:33;3.90;;;3.10;;
769;SDS011;368;48.698;9.116;2022-08-01T09:12:00;3.80;;;3.50;;
769;SDS011;368;48.698;9.116;2022-08-01T09:14:27;3.77;;;3.30;;
769;SDS011;368;48.698;9.116;2022-08-01T09:16:59;3.67;;;3.33;;
769;SDS011;368;48.698;9.116;2022-08-01T09:19:36;3.90;;;3.60;;
769;SDS011;368;48.698;9.116;2022-08-01T09:22:04;4.03;;;3.70;;
769;SDS011;368;48.698;9.116;2022-08-01T09:24:33;4.10;;;3.57;;
769;SDS011;368;48.698;9.116;2022-08-01T09:27:01;3.73;;;3.43;;
769;SDS011;368;48.698;9.116;2022-08-01T09:29:43;3.67;;;3.37;;
769;SDS011;368;48.698;9.116;2022-08-01T09:32:11;3.83;;;3.50;;
769;SDS011;368;48.698;9.116;2022-08-01T09:34:39;3.90;;;3.60;;
769;SDS011;368;48.698;9.116;2022-08-01T09:37:06;4.67;;;4.10;;
769;SDS011;368;48.698;9.116;2022-08-01T09:39:33;4.23;;;3.53;;
769;SDS011;368;48.698;9.116;2022-08-01T09:44:48;4.20;;;3.90;;
769;SDS011;368;48.698;9.116;2022-08-01T09:47:15;5.07;;;3.83;;
769;SDS011;368;48.698;9.116;2022-08-01T09:49:53;3.80;;;3.50;;
769;SDS011;368;48.698;9.116;2022-08-01T09:52:22;4.67;;;4.27;;
769;SDS011;368;48.698;9.116;2022-08-01T09:54:51;4.00;;;3.70;;
769;SDS011;368;48.698;9.116;2022-08-01T09:57:20;4.23;;;3.67;;
769;SDS011;368;48.698;9.116;2022-08-01T09:59:47;4.90;;;4.37;;
769;SDS011;368;48.698;9.116;2022-08-01T10:02:26;4.43;;;4.13;;
769;SDS011;368;48.698;9.116;2022-08-01T10:04:55;4.37;;;4.07;;
769;SDS011;368;48.698;9.116;2022-08-01T10:07:22;4.60;;;4.13;;
769;SDS011;368;48.698;9.116;2022-08-01T10:09:49;4.23;;;3.90;;
769;SDS011;368;48.698;9.116;2022-08-01T10:12:17;4.10;;;3.80;;
769;SDS011;368;48.698;9.116;2022-08-01T10:14:47;4.83;;;4.53;;
769;SDS011;368;48.698;9.116;2022-08-01T10:17:15;6.30;;;4.33;;
769;SDS011;368;48.698;9.116;2022-08-01T10:19:43;5.40;;;5.00;;
769;SDS011;368;48.698;9.116;2022-08-01T10:22:13;6.33;;;4.87;;
769;SDS011;368;48.698;9.116;2022-08-01T10:24:42;5.43;;;5.03;;
769;SDS011;368;48.698;9.116;2022-08-01T10:27:10;5.13;;;4.67;;
769;SDS011;368;48.698;9.116;2022-08-01T10:29:40;6.07;;;5.67;;
769;SDS011;368;48.698;9.116;2022-08-01T10:32:09;5.60;;;5.10;;
769;SDS011;368;48.698;9.116;2022-08-01T10:34:36;4.80;;;4.50;;
769;SDS011;368;48.698;9.116;2022-08-01T10:37:04;5.70;;;5.20;;
769;SDS011;368;48.698;9.116;2022-08-01T10:39:33;5.20;;;4.80;;
769;SDS011;368;48.698;9.116;2022-08-01T10:42:00;7.17;;;5.43;;
769;SDS011;368;48.698;9.116;2022-08-01T10:44:28;4.90;;;4.60;;
769;SDS011;368;48.698;9.116;2022-08-01T10:46:57;4.93;;;4.63;;
769;SDS011;368;48.698;9.116;2022-08-01T10:49:30;5.67;;;5.03;;
769;SDS011;368;48.698;9.116;2022-08-01T10:52:01;4.37;;;3.93;;
769;SDS011;368;48.698;9.116;2022-08-01T10:54:28;4.00;;;3.70;;
769;SDS011;368;48.698;9.116;2022-08-01T10:57:06;4.70;;;4.40;;
769;SDS011;368;48.698;9.116;2022-08-01T10:59:33;4.70;;;4.30;;
769;SDS011;368;48.698;9.116;2022-08-01T11:02:06;3.80;;;3.50;;
769;SDS011;368;48.698;9.116;2022-08-01T11:04:51;4.03;;;3.63;;
769;SDS011;368;48.698;9.116;2022-08-01T11:07:21;4.97;;;3.70;;
769;SDS011;368;48.698;9.116;2022-08-01T11:10:02;3.70;;;3.40;;
769;SDS011;368;48.698;9.116;2022-08-01T11:12:39;3.83;;;3.60;;
769;SDS011;368;48.698;9.116;2022-08-01T11:15:17;4.30;;;4.00;;
769;SDS011;368;48.698;9.116;2022-08-01T11:17:50;4.13;;;3.73;;
769;SDS011;368;48.698;9.116;2022-08-01T11:20:18;4.50;;;4.20;;
769;SDS011;368;48.698;9.116;2022-08-01T11:28:43;3.83;;;3.60;;
769;SDS011;368;48.698;9.116;2022-08-01T11:31:28;3.93;;;3.63;;
769;SDS011;368;48.698;9.116;2022-08-01T11:33:56;4.10;;;3.70;;
769;SDS011;368;48.698;9.116;2022-08-01T11:36:24;4.33;;;4.03;;
769;SDS011;368;48.698;9.116;2022-08-01T11:41:38;3.93;;;3.63;;
769;SDS011;368;48.698;9.116;2022-08-01T11:44:08;4.80;;;4.40;;
769;SDS011;368;48.698;9.116;2022-08-01T11:46:47;4.20;;;3.90;;
769;SDS011;368;48.698;9.116;2022-08-01T11:49:25;3.77;;;3.47;;
769;SDS011;368;48.698;9.116;2022-08-01T11:52:00;4.70;;;3.40;;
769;SDS011;368;48.698;9.116;2022-08-01T11:54:30;3.27;;;3.07;;
769;SDS011;368;48.698;9.116;2022-08-01T11:56:59;3.33;;;3.13;;
769;SDS011;368;48.698;9.116;2022-08-01T11:59:34;3.30;;;3.07;;
769;SDS011;368;48.698;9.116;2022-08-01T12:02:02;4.63;;;3.27;;
769;SDS011;368;48.698;9.116;2022-08-01T12:04:43;3.70;;;3.40;;
769;SDS011;368;48.698;9.116;2022-08-01T12:07:12;3.50;;;3.20;;
769;SDS011;368;48.698;9.116;2022-08-01T12:09:39;2.80;;;2.60;;
769;SDS011;368;48.698;9.116;2022-08-01T12:12:06;3.37;;;3.17;;
769;SDS011;368;48.698;9.116;2022-08-01T12:14:34;3.97;;;3.37;;
769;SDS011;368;48.698;9.116;2022-08-01T12:17:01;3.17;;;2.97;;
769;SDS011;368;48.698;9.116;2022-08-01T12:19:28;4.80;;;3.67;;
769;SDS011;368;48.698;9.116;2022-08-01T12:22:04;3.70;;;3.30;;
769;SDS011;368;48.698;9.116;2022-08-01T12:24:40;3.47;;;3.17;;
769;SDS011;368;48.698;9.116;2022-08-01T12:27:08;3.73;;;3.43;;
769;SDS011;368;48.698;9.116;2022-08-01T12:29:39;2.90;;;2.60;;
769;SDS011;368;48.698;9.116;2022-08-01T12:32:22;2.87;;;2.63;;
769;SDS011;368;48.698;9.116;2022-08-01T12:34:52;3.33;;;2.30;;
769;SDS011;368;48.698;9.116;2022-08-01T12:37:21;2.47;;;2.27;;
769;SDS011;368;48.698;9.116;2022-08-01T12:39:50;2.97;;;2.77;;
769;SDS011;368;48.698;9.116;2022-08-01T12:42:17;2.70;;;2.50;;
769;SDS011;368;48.698;9.116;2022-08-01T12:44:48;2.60;;;2.40;;
769;SDS011;368;48.698;9.116;2022-08-01T12:47:17;2.80;;;2.60;;
769;SDS011;368;48.698;9.116;2022-08-01T12:49:45;2.97;;;2.50;;
769;SDS011;368;48.698;9.116;2022-08-01T12:52:13;2.70;;;2.50;;
769;SDS011;368;48.698;9.116;2022-08-01T12:57:39;2.80;;;2.60;;
769;SDS011;368;48.698;9.116;2022-08-01T13:00:13;3.20;;;2.90;;
769;SDS011;368;48.698;9.116;2022-08-01T13:02:43;2.60;;;2.40;;
769;SDS011;368;48.698;9.116;2022-08-01T13:05:11;3.37;;;2.50;;
769;SDS011;368;48.698;9.116;2022-08-01T13:07:40;4.47;;;2.43;;
769;SDS011;368;48.698;9.116;2022-08-01T13:10:11;2.70;;;2.40;;
769;SDS011;368;48.698;9.116;2022-08-01T13:12:40;2.80;;;2.60;;
769;SDS011;368;48.698;9.116;2022-08-01T13:15:20;3.20;;;2.50;;
769;SDS011;368;48.698;9.116;2022-08-01T13:17:52;4.80;;;2.30;;
769;SDS011;368;48.698;9.116;2022-08-01T13:20:26;3.47;;;2.50;;
769;SDS011;368;48.698;9.116;2022-08-01T13:22:54;2.97;;;2.67;;
769;SDS011;368;48.698;9.116;2022-08-01T13:25:21;2.30;;;2.20;;
769;SDS011;368;48.698;9.116;2022-08-01T13:27:48;2.90;;;2.37;;
769;SDS011;368;48.698;9.116;2022-08-01T13:30:37;3.83;;;2.80;;
769;SDS011;368;48.698;9.116;2022-08-01T13:33:03;2.67;;;2.47;;
769;SDS011;368;48.698;9.116;2022-08-01T13:35:31;3.97;;;2.73;;
769;SDS011;368;48.698;9.116;2022-08-01T13:37:58;2.80;;;2.60;;
769;SDS011;368;48.698;9.116;2022-08-01T13:40:26;8.40;;;2.83;;
769;SDS011;368;48.698;9.116;2022-08-01T13:42:53;2.27;;;2.07;;
769;SDS011;368;48.698;9.116;2022-08-01T13:45:21;2.40;;;2.20;;
769;SDS011;368;48.698;9.116;2022-08-01T13:47:50;2.60;;;2.40;;
769;SDS011;368;48.698;9.116;2022-08-01T13:50:17;3.10;;;2.20;;
769;SDS011;368;48.698;9.116;2022-08-01T13:52:43;2.13;;;2.00;;
769;SDS011;368;48.698;9.116;2022-08-01T13:55:10;3.97;;;1.90;;
769;SDS011;368;48.698;9.116;2022-08-01T13:57:37;2.30;;;2.10;;
769;SDS011;368;48.698;9.116;2022-08-01T14:00:05;2.70;;;2.50;;
769;SDS011;368;48.698;9.116;2022-08-01T14:02:35;2.70;;;2.50;;
769;SDS011;368;48.698;9.116;2022-08-01T14:05:03;2.60;;;2.40;;
769;SDS011;368;48.698;9.116;2022-08-01T14:07:30;3.87;;;2.50;;
769;SDS011;368;48.698;9.116;2022-08-01T14:09:58;2.60;;;2.40;;
769;SDS011;368;48.698;9.116;2022-08-01T14:12:26;3.00;;;2.27;;
769;SDS011;368;48.698;9.116;2022-08-01T14:14:53;4.63;;;2.83;;
769;SDS011;368;48.698;9.116;2022-08-01T14:17:22;2.50;;;2.30;;
769;SDS011;368;48.698;9.116;2022-08-01T14:19:49;3.00;;;2.80;;
769;SDS011;368;48.698;9.116;2022-08-01T14:22:17;3.30;;;2.43;;
769;SDS011;368;48.698;9.116;2022-08-01T14:24:44;5.63;;;3.00;;
769;SDS011;368;48.698;9.116;2022-08-01T14:27:11;2.70;;;2.27;;
769;SDS011;368;48.698;9.116;2022-08-01T14:29:38;2.60;;;2.40;;
769;SDS011;368;48.698;9.116;2022-08-01T14:32:05;2.37;;;2.17;;
769;SDS011;368;48.698;9.116;2022-08-01T14:34:32;2.57;;;2.37;;
769;SDS011;368;48.698;9.116;2022-08-01T14:36:59;2.53;;;2.30;;
769;SDS011;368;48.698;9.116;2022-08-01T14:39:27;2.30;;;2.20;;
769;SDS011;368;48.698;9.116;2022-08-01T14:41:56;2.33;;;2.13;;
769;SDS011;368;48.698;9.116;2022-08-01T14:44:22;2.40;;;2.20;;
769;SDS011;368;48.698;9.116;2022-08-01T14:46:49;5.73;;;2.30;;
769;SDS011;368;48.698;9.116;2022-08-01T14:49:16;2.70;;;2.50;;
769;SDS011;368;48.698;9.116;2022-08-01T14:51:45;2.23;;;2.03;;
769;SDS011;368;48.698;9.116;2022-08-01T14:54:11;2.77;;;2.50;;
769;SDS011;368;48.698;9.116;2022-08-01T14:56:39;2.37;;;2.17;;
769;SDS011;368;48.698;9.116;2022-08-01T14:59:06;3.23;;;2.40;;
769;SDS011;368;48.698;9.116;2022-08-01T15:01:34;2.57;;;2.20;;
769;SDS011;368;48.698;9.116;2022-08-01T15:04:01;2.40;;;2.20;;
769;SDS011;368;48.698;9.116;2022-08-01T15:06:27;2.30;;;2.10;;
769;SDS011;368;48.698;9.116;2022-08-01T15:08:54;2.30;;;2.10;;
769;SDS011;368;48.698;9.116;2022-08-01T15:11:21;2.50;;;2.30;;
769;SDS011;368;48.698;9.116;2022-08-01T15:13:49;3.17;;;2.60;;
769;SDS011;368;48.698;9.116;2022-08-01T15:16:36;2.90;;;2.67;;
769;SDS011;368;48.698;9.116;2022-08-01T15:19:03;3.37;;;2.63;;
769;SDS011;368;48.698;9.116;2022-08-01T15:21:30;2.70;;;2.50;;
769;SDS011;368;48.698;9.116;2022-08-01T15:23:57;2.37;;;2.17;;
769;SDS011;368;48.698;9.116;2022-08-01T15:26:24;2.57;;;2.37;;
769;SDS011;368;48.698;9.116;2022-08-01T15:28:54;2.60;;;2.37;;
769;SDS011;368;48.698;9.116;2022-08-01T15:31:22;2.47;;;2.20;;
769;SDS011;368;48.698;9.116;2022-08-01T15:33:54;2.73;;;2.40;;
769;SDS011;368;48.698;9.116;2022-08-01T15:41:36;2.37;;;2.17;;
769;SDS011;368;48.698;9.116;2022-08-01T15:44:04;2.43;;;2.23;;
769;SDS011;368;48.698;9.116;2022-08-01T15:46:31;3.20;;;2.90;;
769;SDS011;368;48.698;9.116;2022-08-01T15:48:59;2.50;;;2.10;;
769;SDS011;368;48.698;9.116;2022-08-01T15:51:29;3.63;;;2.07;;
769;SDS011;368;48.698;9.116;2022-08-01T15:53:56;2.47;;;2.27;;
769;SDS011;368;48.698;9.116;2022-08-01T15:56:23;1.83;;;1.70;;
769;SDS011;368;48.698;9.116;2022-08-01T15:58:49;2.40;;;2.13;;
769;SDS011;368;48.698;9.116;2022-08-01T16:01:18;1.73;;;1.63;;
769;SDS011;368;48.698;9.116;2022-08-01T16:03:46;2.60;;;2.30;;
769;SDS011;368;48.698;9.116;2022-08-01T16:06:12;2.27;;;1.80;;
769;SDS011;368;48.698;9.116;2022-08-01T16:08:39;2.60;;;2.03;;
769;SDS011;368;48.698;9.116;2022-08-01T16:11:07;2.30;;;1.93;;
769;SDS011;368;48.698;9.116;2022-08-01T16:13:34;2.43;;;2.23;;
769;SDS011;368;48.698;9.116;2022-08-01T16:16:01;2.63;;;2.43;;